createdAt,value
2023-03-31T00:01:43.095Z,1.98
2023-03-31T00:04:13.360Z,2.40
2023-03-31T00:06:42.022Z,2.22
2023-03-31T00:09:21.989Z,2.15
2023-03-31T00:11:49.739Z,2.90
2023-03-31T00:14:18.028Z,2.00
2023-03-31T00:16:45.368Z,2.67
2023-03-31T00:19:18.415Z,3.22
2023-03-31T00:21:46.186Z,2.67
2023-03-31T00:24:14.389Z,2.95
2023-03-31T00:26:40.869Z,2.13
2023-03-31T00:29:09.613Z,2.22
2023-03-31T00:31:36.418Z,2.63
2023-03-31T00:34:02.925Z,2.20
2023-03-31T00:36:29.404Z,2.63
2023-03-31T00:39:09.570Z,2.80
2023-03-31T00:41:39.227Z,2.25
2023-03-31T00:44:08.644Z,2.40
2023-03-31T00:46:44.017Z,2.78
2023-03-31T00:49:20.915Z,2.15
2023-03-31T00:51:49.689Z,3.13
2023-03-31T00:54:19.480Z,2.45
2023-03-31T00:56:49.253Z,1.92
2023-03-31T00:59:16.442Z,1.70
2023-03-31T01:01:48.009Z,1.90
2023-03-31T01:07:25.721Z,2.00
2023-03-31T01:09:55.072Z,1.95
2023-03-31T01:12:22.668Z,2.25
2023-03-31T01:14:50.747Z,1.85
2023-03-31T01:17:21.753Z,2.40
2023-03-31T01:19:56.716Z,2.13
2023-03-31T01:22:45.875Z,2.50
2023-03-31T01:25:43.335Z,2.55
2023-03-31T01:28:29.128Z,1.52
2023-03-31T01:30:58.716Z,2.15
2023-03-31T01:33:37.582Z,1.90
2023-03-31T01:36:15.913Z,1.92
2023-03-31T01:38:57.534Z,1.70
2023-03-31T01:41:52.674Z,1.75
2023-03-31T01:44:56.327Z,1.83
2023-03-31T01:47:34.626Z,1.77
2023-03-31T01:50:06.760Z,2.38
2023-03-31T01:52:47.440Z,2.05
2023-03-31T01:55:38.917Z,1.83
2023-03-31T01:58:35.234Z,1.63
2023-03-31T02:01:08.608Z,2.55
2023-03-31T02:03:45.913Z,1.42
2023-03-31T02:06:18.257Z,1.80
2023-03-31T02:08:50.455Z,2.15
2023-03-31T02:11:17.092Z,2.13
2023-03-31T02:13:47.691Z,1.92
2023-03-31T02:16:20.862Z,1.35
2023-03-31T02:18:49.987Z,1.75
2023-03-31T02:21:17.272Z,1.58
2023-03-31T02:23:45.380Z,2.10
2023-03-31T02:26:16.030Z,1.52
2023-03-31T02:28:43.103Z,1.50
2023-03-31T02:31:24.621Z,1.50
2023-03-31T02:33:51.204Z,1.65
2023-03-31T02:36:18.423Z,1.52
2023-03-31T02:39:14.951Z,1.67
2023-03-31T02:41:42.899Z,1.80
2023-03-31T02:44:11.134Z,1.92
2023-03-31T02:46:38.433Z,1.52
2023-03-31T02:49:09.536Z,2.20
2023-03-31T02:51:52.149Z,2.47
2023-03-31T02:54:36.084Z,1.65
2023-03-31T02:57:15.989Z,1.60
2023-03-31T03:00:18.096Z,1.98
2023-03-31T03:05:45.754Z,1.52
2023-03-31T03:08:50.264Z,1.65
2023-03-31T03:11:23.944Z,1.65
2023-03-31T03:13:55.234Z,1.77
2023-03-31T03:16:27.425Z,1.60
2023-03-31T03:19:04.871Z,1.83
2023-03-31T03:21:31.963Z,1.50
2023-03-31T03:23:59.666Z,1.60
2023-03-31T03:26:28.208Z,1.83
2023-03-31T03:28:56.544Z,1.85
2023-03-31T03:31:26.068Z,2.20
2023-03-31T03:33:53.633Z,1.83
2023-03-31T03:36:20.250Z,1.90
2023-03-31T03:38:46.717Z,1.33
2023-03-31T03:41:13.218Z,1.65
2023-03-31T03:43:39.680Z,1.70
2023-03-31T03:46:06.215Z,2.28
2023-03-31T03:48:32.889Z,1.73
2023-03-31T03:51:01.008Z,1.80
2023-03-31T03:53:27.900Z,1.80
2023-03-31T03:55:54.437Z,1.50
2023-03-31T03:58:21.036Z,1.80
2023-03-31T04:00:48.056Z,1.73
2023-03-31T04:03:15.221Z,1.75
2023-03-31T04:05:42.562Z,1.65
2023-03-31T04:08:09.094Z,1.40
2023-03-31T04:10:36.012Z,1.67
2023-03-31T04:13:02.479Z,2.00
2023-03-31T04:15:29.100Z,1.98
2023-03-31T04:17:57.953Z,1.48
2023-03-31T04:20:27.969Z,2.00
2023-03-31T04:22:54.730Z,1.85
2023-03-31T04:25:22.706Z,1.63
2023-03-31T04:27:54.580Z,2.00
2023-03-31T04:30:23.054Z,1.80
2023-03-31T04:32:55.412Z,2.10
2023-03-31T04:35:23.612Z,1.80
2023-03-31T04:37:52.534Z,2.17
2023-03-31T04:40:19.102Z,1.83
2023-03-31T04:42:45.706Z,1.70
2023-03-31T04:45:12.804Z,1.77
2023-03-31T04:47:39.506Z,2.22
2023-03-31T04:50:06.814Z,2.40
2023-03-31T04:52:33.299Z,1.83
2023-03-31T04:54:59.778Z,2.63
2023-03-31T04:57:26.289Z,2.15
2023-03-31T04:59:52.829Z,2.40
2023-03-31T05:02:25.203Z,2.17
2023-03-31T05:04:52.352Z,2.90
2023-03-31T05:07:19.747Z,2.33
2023-03-31T05:09:47.007Z,1.80
2023-03-31T05:12:13.583Z,2.50
2023-03-31T05:14:40.269Z,2.33
2023-03-31T05:17:06.895Z,2.05
2023-03-31T05:19:33.398Z,2.22
2023-03-31T05:22:00.086Z,1.95
2023-03-31T05:24:28.371Z,2.47
2023-03-31T05:26:55.895Z,2.25
2023-03-31T05:29:22.334Z,2.20
2023-03-31T05:31:49.121Z,2.53
2023-03-31T05:34:16.269Z,2.25
2023-03-31T05:36:43.497Z,2.35
2023-03-31T05:41:47.057Z,1.60
2023-03-31T05:44:13.704Z,2.20
2023-03-31T05:46:41.377Z,1.88
2023-03-31T05:49:08.434Z,2.47
2023-03-31T05:51:34.992Z,2.08
2023-03-31T05:54:01.474Z,3.38
2023-03-31T05:56:28.044Z,2.67
2023-03-31T05:58:54.585Z,2.38
2023-03-31T06:01:22.967Z,3.05
2023-03-31T06:03:49.899Z,2.60
2023-03-31T06:06:19.471Z,2.65
2023-03-31T06:08:47.245Z,2.60
2023-03-31T06:11:19.535Z,2.40
2023-03-31T06:13:46.416Z,2.67
2023-03-31T06:16:14.667Z,2.40
2023-03-31T06:18:41.924Z,2.90
2023-03-31T06:21:12.587Z,2.45
2023-03-31T06:23:39.211Z,2.75
2023-03-31T06:26:08.398Z,2.38
2023-03-31T06:28:36.292Z,1.90
2023-03-31T06:31:08.928Z,2.65
2023-03-31T06:33:36.241Z,3.28
2023-03-31T06:36:04.300Z,2.58
2023-03-31T06:38:31.345Z,2.15
2023-03-31T06:40:57.876Z,2.55
2023-03-31T06:43:24.693Z,2.13
2023-03-31T06:45:54.050Z,2.47
2023-03-31T06:48:21.212Z,2.30
2023-03-31T06:50:47.694Z,1.95
2023-03-31T06:53:14.270Z,2.05
2023-03-31T06:55:40.931Z,2.63
2023-03-31T06:58:07.463Z,2.42
2023-03-31T07:00:33.993Z,2.20
2023-03-31T07:03:01.329Z,2.28
2023-03-31T07:05:29.074Z,2.63
2023-03-31T07:07:56.527Z,4.35
2023-03-31T07:10:24.150Z,3.70
2023-03-31T07:12:50.923Z,3.08
2023-03-31T07:15:17.551Z,3.30
2023-03-31T07:17:44.210Z,3.08
2023-03-31T07:20:12.800Z,2.85
2023-03-31T07:22:41.428Z,2.80
2023-03-31T07:25:12.696Z,2.63
2023-03-31T07:27:39.700Z,2.53
2023-03-31T07:30:08.560Z,3.08
2023-03-31T07:32:39.572Z,2.50
2023-03-31T07:35:10.007Z,2.63
2023-03-31T07:37:43.669Z,2.35
2023-03-31T07:40:19.840Z,1.85
2023-03-31T07:42:49.287Z,2.85
2023-03-31T07:45:17.047Z,2.10
2023-03-31T07:47:46.393Z,2.28
2023-03-31T07:50:14.345Z,2.50
2023-03-31T07:52:40.972Z,2.17
2023-03-31T07:55:08.977Z,2.75
2023-03-31T07:57:36.777Z,2.08
2023-03-31T08:00:07.798Z,2.53
2023-03-31T08:02:34.855Z,2.40
2023-03-31T08:05:01.549Z,1.50
2023-03-31T08:07:30.876Z,1.85
2023-03-31T08:09:58.717Z,2.25
2023-03-31T08:12:25.456Z,2.50
2023-03-31T08:14:52.027Z,2.65
2023-03-31T08:17:18.585Z,2.15
2023-03-31T08:19:45.275Z,2.05
2023-03-31T08:22:11.689Z,2.40
2023-03-31T08:24:38.159Z,1.90
2023-03-31T08:27:04.746Z,1.83
2023-03-31T08:29:31.203Z,2.03
2023-03-31T08:31:57.757Z,2.10
2023-03-31T08:34:24.273Z,2.58
2023-03-31T08:36:50.796Z,1.95
2023-03-31T08:39:17.287Z,1.75
2023-03-31T08:41:56.177Z,2.65
2023-03-31T08:44:38.743Z,2.00
2023-03-31T08:47:10.855Z,2.10
2023-03-31T08:49:52.743Z,2.17
2023-03-31T08:52:27.085Z,2.28
2023-03-31T08:54:58.410Z,2.35
2023-03-31T08:57:54.391Z,2.45
2023-03-31T09:00:21.573Z,2.00
2023-03-31T09:03:00.906Z,2.22
2023-03-31T09:06:01.120Z,2.10
2023-03-31T09:08:33.664Z,2.35
2023-03-31T09:11:27.319Z,2.00
2023-03-31T09:14:24.416Z,2.95
2023-03-31T09:17:27.827Z,2.75
2023-03-31T09:19:58.854Z,2.50
2023-03-31T09:22:33.613Z,2.15
2023-03-31T09:25:06.233Z,2.33
2023-03-31T09:27:37.178Z,2.35
2023-03-31T09:30:10.035Z,2.15
2023-03-31T09:32:38.187Z,2.50
2023-03-31T09:35:23.056Z,2.63
2023-03-31T09:37:50.631Z,2.97
2023-03-31T09:40:20.730Z,2.72
2023-03-31T09:42:54.181Z,1.98
2023-03-31T09:45:21.073Z,1.95
2023-03-31T09:47:52.532Z,2.33
2023-03-31T09:50:19.199Z,1.95
2023-03-31T09:53:00.733Z,1.90
2023-03-31T09:55:53.201Z,1.90
2023-03-31T09:58:21.476Z,1.92
2023-03-31T10:01:17.415Z,1.58
2023-03-31T10:03:50.090Z,1.95
2023-03-31T10:06:18.151Z,1.80
2023-03-31T10:09:01.578Z,1.83
2023-03-31T10:11:28.680Z,1.88
2023-03-31T10:14:07.093Z,2.05
2023-03-31T10:16:42.746Z,2.00
2023-03-31T10:19:17.744Z,1.80
2023-03-31T10:21:46.867Z,1.80
2023-03-31T10:24:18.767Z,1.90
2023-03-31T10:26:49.217Z,1.65
2023-03-31T10:29:25.624Z,1.50
2023-03-31T10:31:52.286Z,1.73
2023-03-31T10:34:19.347Z,1.70
2023-03-31T10:36:48.533Z,1.60
2023-03-31T10:39:19.110Z,1.70
2023-03-31T10:41:56.133Z,2.22
2023-03-31T10:44:32.512Z,2.00
2023-03-31T10:47:13.463Z,2.25
2023-03-31T10:49:41.836Z,1.63
2023-03-31T10:52:27.234Z,1.60
2023-03-31T10:54:58.599Z,2.15
2023-03-31T10:57:36.963Z,1.83
2023-03-31T11:00:53.425Z,1.98
2023-03-31T11:03:52.101Z,2.17
2023-03-31T11:06:32.037Z,2.20
2023-03-31T11:09:30.735Z,1.55
2023-03-31T11:12:27.074Z,1.60
2023-03-31T11:15:22.325Z,2.22
2023-03-31T11:17:59.607Z,1.50
2023-03-31T11:20:47.511Z,1.83
2023-03-31T11:23:19.999Z,1.55
2023-03-31T11:26:07.705Z,1.73
2023-03-31T11:28:58.761Z,2.03
2023-03-31T11:31:48.761Z,2.50
2023-03-31T11:34:48.880Z,1.90
2023-03-31T11:37:45.903Z,2.13
2023-03-31T11:40:34.224Z,1.63
2023-03-31T11:43:12.862Z,2.10
2023-03-31T11:45:51.697Z,2.55
2023-03-31T11:48:31.431Z,2.28
2023-03-31T11:51:01.402Z,2.10
2023-03-31T11:53:33.838Z,2.42
2023-03-31T11:56:02.549Z,2.55
2023-03-31T11:58:40.582Z,2.75
2023-03-31T12:01:16.434Z,2.28
2023-03-31T12:04:09.057Z,2.35
2023-03-31T12:06:40.171Z,3.20
2023-03-31T12:09:51.398Z,2.28
2023-03-31T12:12:24.773Z,3.03
2023-03-31T12:15:12.804Z,2.25
2023-03-31T12:17:42.068Z,2.53
2023-03-31T12:20:26.065Z,1.33
2023-03-31T12:22:54.489Z,1.73
2023-03-31T12:25:31.290Z,1.90
2023-03-31T12:27:59.923Z,2.13
2023-03-31T12:30:37.538Z,1.85
2023-03-31T12:33:20.144Z,2.20
2023-03-31T12:35:49.532Z,2.13
2023-03-31T12:38:41.299Z,2.13
2023-03-31T12:41:20.944Z,1.17
2023-03-31T12:44:05.509Z,1.35
2023-03-31T12:46:59.084Z,1.67
2023-03-31T12:49:51.754Z,1.45
2023-03-31T12:52:28.407Z,1.83
2023-03-31T12:55:00.324Z,1.70
2023-03-31T12:57:27.564Z,1.75
2023-03-31T13:00:08.384Z,1.60
2023-03-31T13:02:34.998Z,1.85
2023-03-31T13:05:37.298Z,2.10
2023-03-31T13:08:42.150Z,2.53
2023-03-31T13:11:08.900Z,2.63
2023-03-31T13:13:35.775Z,2.35
2023-03-31T13:16:02.771Z,3.10
2023-03-31T13:18:34.103Z,2.55
2023-03-31T13:23:35.585Z,3.55
2023-03-31T13:26:02.654Z,3.92
2023-03-31T13:28:39.956Z,3.55
2023-03-31T13:31:15.190Z,2.80
2023-03-31T13:33:57.397Z,3.90
2023-03-31T13:36:44.004Z,3.33
2023-03-31T13:39:28.044Z,2.90
2023-03-31T13:42:00.873Z,3.25
2023-03-31T13:45:04.595Z,3.25
2023-03-31T13:47:37.129Z,2.90
2023-03-31T13:50:22.490Z,2.38
2023-03-31T13:53:07.678Z,2.40
2023-03-31T13:55:46.645Z,2.17
2023-03-31T13:58:45.661Z,2.60
2023-03-31T14:01:23.155Z,2.13
2023-03-31T14:04:02.785Z,2.67
2023-03-31T14:06:41.669Z,1.88
2023-03-31T14:09:20.892Z,1.70
2023-03-31T14:11:47.497Z,1.58
2023-03-31T14:14:16.469Z,1.80
2023-03-31T14:16:48.525Z,1.95
2023-03-31T14:19:36.793Z,1.50
2023-03-31T14:22:08.458Z,1.50
2023-03-31T14:27:44.810Z,1.20
2023-03-31T14:30:17.795Z,1.10
2023-03-31T14:32:48.934Z,1.30
2023-03-31T14:35:30.260Z,1.17
2023-03-31T14:37:57.455Z,1.35
2023-03-31T14:40:24.848Z,0.80
2023-03-31T14:42:51.448Z,1.70
2023-03-31T14:45:26.142Z,1.60
2023-03-31T14:47:57.358Z,1.10
2023-03-31T14:50:31.452Z,1.42
2023-03-31T14:52:58.023Z,1.25
2023-03-31T14:55:35.581Z,2.03
2023-03-31T14:58:14.637Z,1.58
2023-03-31T15:00:41.613Z,4.20
2023-03-31T15:03:13.789Z,1.20
2023-03-31T15:05:42.835Z,1.40
2023-03-31T15:08:18.296Z,1.30
2023-03-31T15:10:54.017Z,1.20
2023-03-31T15:13:31.662Z,1.33
2023-03-31T15:15:58.152Z,1.80
2023-03-31T15:18:27.342Z,1.40
2023-03-31T15:20:53.824Z,1.50
2023-03-31T15:23:27.407Z,1.45
2023-03-31T15:26:02.581Z,1.65
2023-03-31T15:28:36.421Z,1.25
2023-03-31T15:31:10.134Z,1.70
2023-03-31T15:36:30.292Z,1.60
2023-03-31T15:38:59.031Z,1.38
2023-03-31T15:41:30.793Z,1.35
2023-03-31T15:44:27.322Z,1.10
2023-03-31T15:47:02.143Z,1.73
2023-03-31T15:49:29.532Z,1.23
2023-03-31T15:52:02.254Z,1.40
2023-03-31T15:54:31.447Z,1.92
2023-03-31T15:57:01.800Z,1.20
2023-03-31T15:59:41.568Z,1.40
2023-03-31T16:02:20.651Z,1.40
2023-03-31T16:04:51.390Z,1.13
2023-03-31T16:07:24.679Z,1.40
2023-03-31T16:10:19.803Z,1.20
2023-03-31T16:13:03.624Z,1.73
2023-03-31T16:15:47.612Z,1.50
2023-03-31T16:18:22.781Z,1.52
2023-03-31T16:20:56.068Z,2.20
2023-03-31T16:23:28.785Z,2.10
2023-03-31T16:25:56.066Z,1.70
2023-03-31T16:28:29.511Z,1.88
2023-03-31T16:30:56.035Z,1.88
2023-03-31T16:33:24.368Z,1.40
2023-03-31T16:35:53.782Z,1.20
2023-03-31T16:38:22.341Z,1.38
2023-03-31T16:40:51.765Z,2.05
2023-03-31T16:43:21.502Z,1.55
2023-03-31T16:45:50.376Z,1.70
2023-03-31T16:48:19.464Z,2.00
2023-03-31T16:50:47.625Z,2.30
2023-03-31T16:53:16.413Z,2.90
2023-03-31T16:55:43.355Z,2.63
2023-03-31T16:58:09.879Z,1.92
2023-03-31T17:00:37.070Z,1.75
2023-03-31T17:03:05.070Z,1.55
2023-03-31T17:05:33.958Z,1.70
2023-03-31T17:08:00.789Z,1.65
2023-03-31T17:10:27.367Z,1.63
2023-03-31T17:12:53.831Z,2.03
2023-03-31T17:15:20.498Z,1.88
2023-03-31T17:17:47.735Z,1.90
2023-03-31T17:20:14.261Z,2.00
2023-03-31T17:22:40.742Z,1.60
2023-03-31T17:25:08.020Z,2.42
2023-03-31T17:27:34.991Z,2.63
2023-03-31T17:32:31.019Z,3.53
2023-03-31T17:34:57.483Z,2.50
2023-03-31T17:37:24.130Z,2.33
2023-03-31T17:39:51.133Z,2.50
2023-03-31T17:42:19.147Z,2.38
2023-03-31T17:44:47.739Z,2.55
2023-03-31T17:47:15.469Z,2.38
2023-03-31T17:49:42.438Z,2.70
2023-03-31T17:52:08.939Z,3.10
2023-03-31T17:54:35.573Z,3.10
2023-03-31T17:57:02.148Z,3.03
2023-03-31T17:59:28.850Z,3.80
2023-03-31T18:01:55.460Z,3.22
2023-03-31T18:04:22.368Z,3.72
2023-03-31T18:06:50.301Z,3.03
2023-03-31T18:09:17.161Z,3.03
2023-03-31T18:11:44.231Z,2.75
2023-03-31T18:14:10.674Z,2.88
2023-03-31T18:16:37.648Z,3.03
2023-03-31T18:19:04.554Z,2.78
2023-03-31T18:21:31.062Z,3.22
2023-03-31T18:23:57.631Z,3.13
2023-03-31T18:26:26.002Z,2.67
2023-03-31T18:28:53.153Z,2.88
2023-03-31T18:31:21.364Z,2.80
2023-03-31T18:33:48.425Z,2.88
2023-03-31T18:36:20.120Z,3.38
2023-03-31T18:38:48.224Z,2.83
2023-03-31T18:41:15.755Z,2.80
2023-03-31T18:43:42.297Z,3.13
2023-03-31T18:46:10.766Z,3.25
2023-03-31T18:48:38.411Z,3.63
2023-03-31T18:51:04.950Z,3.60
2023-03-31T18:53:31.620Z,3.22
2023-03-31T18:55:59.673Z,4.00
2023-03-31T18:58:30.039Z,3.90
2023-03-31T19:00:57.819Z,4.10
2023-03-31T19:03:26.545Z,3.28
2023-03-31T19:06:14.052Z,3.85
2023-03-31T19:08:40.536Z,4.43
2023-03-31T19:11:10.645Z,4.15
2023-03-31T19:13:40.162Z,4.45
2023-03-31T19:16:06.871Z,4.90
2023-03-31T19:18:33.427Z,4.53
2023-03-31T19:21:00.806Z,4.35
2023-03-31T19:23:27.658Z,4.35
2023-03-31T19:25:55.422Z,4.78
2023-03-31T19:28:23.174Z,5.18
2023-03-31T19:30:50.962Z,4.20
2023-03-31T19:33:17.701Z,5.07
2023-03-31T19:35:47.459Z,5.03
2023-03-31T19:38:15.048Z,5.15
2023-03-31T19:40:42.022Z,5.15
2023-03-31T19:43:21.552Z,5.15
2023-03-31T19:45:49.601Z,5.65
2023-03-31T19:48:17.390Z,5.90
2023-03-31T19:50:51.263Z,5.35
2023-03-31T19:53:18.462Z,5.75
2023-03-31T19:55:44.917Z,7.00
2023-03-31T19:58:11.515Z,5.50
2023-03-31T20:00:39.182Z,6.47
2023-03-31T20:03:06.148Z,6.30
2023-03-31T20:05:33.350Z,6.80
2023-03-31T20:07:59.763Z,6.38
2023-03-31T20:10:26.354Z,7.38
2023-03-31T20:12:52.903Z,6.45
2023-03-31T20:15:19.428Z,7.25
2023-03-31T20:17:46.505Z,7.07
2023-03-31T20:20:13.273Z,6.53
2023-03-31T20:22:41.262Z,7.05
2023-03-31T20:25:08.182Z,7.18
2023-03-31T20:27:34.810Z,6.53
2023-03-31T20:30:01.316Z,7.10
2023-03-31T20:32:27.841Z,7.10
2023-03-31T20:34:54.699Z,7.07
2023-03-31T20:37:21.140Z,7.30
2023-03-31T20:39:48.485Z,7.35
2023-03-31T20:42:15.157Z,7.40
2023-03-31T20:44:41.781Z,7.57
2023-03-31T20:47:08.337Z,7.55
2023-03-31T20:49:34.900Z,7.13
2023-03-31T20:52:01.455Z,6.47
2023-03-31T20:54:28.050Z,6.63
2023-03-31T20:56:54.536Z,6.72
2023-03-31T20:59:22.145Z,5.60
2023-03-31T21:01:49.660Z,5.93
2023-03-31T21:04:16.958Z,5.85
2023-03-31T21:06:46.096Z,4.70
2023-03-31T21:09:14.577Z,4.30
2023-03-31T21:11:41.697Z,4.07
2023-03-31T21:14:13.152Z,3.65
2023-03-31T21:16:40.276Z,3.58
2023-03-31T21:19:06.783Z,3.50
2023-03-31T21:21:35.214Z,3.17
2023-03-31T21:24:02.097Z,3.55
2023-03-31T21:26:28.596Z,3.67
2023-03-31T21:28:55.321Z,3.67
2023-03-31T21:31:24.659Z,2.90
2023-03-31T21:33:52.204Z,2.80
2023-03-31T21:36:24.243Z,2.90
2023-03-31T21:38:54.275Z,3.28
2023-03-31T21:41:24.428Z,2.78
2023-03-31T21:43:51.317Z,2.70
2023-03-31T21:46:20.086Z,3.10
2023-03-31T21:48:48.780Z,3.45
2023-03-31T21:51:17.033Z,2.70
2023-03-31T21:53:43.695Z,2.78
2023-03-31T21:56:10.187Z,2.72
2023-03-31T21:58:36.798Z,3.10
2023-03-31T22:01:04.489Z,3.10
2023-03-31T22:03:34.075Z,3.28
2023-03-31T22:06:07.290Z,2.58
2023-03-31T22:08:36.470Z,2.65
2023-03-31T22:11:05.083Z,2.63
2023-03-31T22:13:31.685Z,2.20
2023-03-31T22:16:00.124Z,2.53
2023-03-31T22:18:27.275Z,2.90
2023-03-31T22:20:53.795Z,2.40
2023-03-31T22:23:22.871Z,2.83
2023-03-31T22:25:49.463Z,2.92
2023-03-31T22:28:16.931Z,2.65
2023-03-31T22:30:44.040Z,2.30
2023-03-31T22:33:10.521Z,3.00
2023-03-31T22:35:37.052Z,2.60
2023-03-31T22:38:05.071Z,2.58
2023-03-31T22:40:33.676Z,2.65
2023-03-31T22:43:01.008Z,2.38
2023-03-31T22:45:27.604Z,2.80
2023-03-31T22:47:54.390Z,2.40
2023-03-31T22:50:21.068Z,2.20
2023-03-31T22:52:47.532Z,2.60
2023-03-31T22:55:14.019Z,2.78
2023-03-31T22:57:40.653Z,3.13
2023-03-31T23:00:07.761Z,2.78
2023-03-31T23:02:34.291Z,2.35
2023-03-31T23:05:00.799Z,2.60
2023-03-31T23:07:28.061Z,2.90
2023-03-31T23:09:54.479Z,2.55
2023-03-31T23:12:21.259Z,2.15
2023-03-31T23:14:47.725Z,2.08
2023-03-31T23:17:14.254Z,2.20
2023-03-31T23:19:40.787Z,2.28
2023-03-31T23:22:07.371Z,2.30
2023-03-31T23:24:33.906Z,2.60
2023-03-31T23:27:00.606Z,3.05
2023-03-31T23:29:28.014Z,2.83
2023-03-31T23:31:54.567Z,2.67
2023-03-31T23:34:21.302Z,2.55
2023-03-31T23:36:47.784Z,2.60
2023-03-31T23:39:14.410Z,2.30
2023-03-31T23:41:41.116Z,2.20
2023-03-31T23:44:07.741Z,2.60
2023-03-31T23:46:34.318Z,2.13
2023-03-31T23:49:03.051Z,2.10
2023-03-31T23:51:29.655Z,2.30
2023-03-31T23:53:56.299Z,2.42
2023-03-31T23:56:22.969Z,1.90
2023-03-31T23:58:49.387Z,1.73
